This is the latest recevied weather packets stored in our database for station/object DO3HUM-5. If no packets are shown the sender has not sent any weather packets the latest 10 day(s).
| Time | Temp. | Humidity | Pressure | Rain* | Wind** | Luminosity | Snow |
|---|---|---|---|---|---|---|---|
| 1777706742 | 17.78° C | 54% | 1030.4 hPa | 0 mm | - | - | - |
| 1777706134 | 17.22° C | 53% | 1030.4 hPa | 0 mm | - | - | - |
| 1777705531 | 16.67° C | 54% | 1030.5 hPa | 0 mm | - | - | - |
| 1777704923 | 16.67° C | 54% | 1030.5 hPa | 0 mm | - | - | - |
| 1777704318 | 16.11° C | 56% | 1030.5 hPa | 0 mm | - | - | - |
| 1777703441 | 15.56° C | 58% | 1030.7 hPa | 0 mm | - | - | - |
| 1777702840 | 14.44° C | 60% | 1030.6 hPa | 0 mm | - | - | - |
| 1777702232 | 13.89° C | 61% | 1030.5 hPa | 0 mm | - | - | - |
| 1777701631 | 13.89° C | 63% | 1030.6 hPa | 0 mm | - | - | - |
| 1777701026 | 12.78° C | 65% | 1030.6 hPa | 0 mm | - | - | - |
| 1777700425 | 11.67° C | 68% | 1030.6 hPa | 0 mm | - | - | - |
| 1777699820 | 11.11° C | 69% | 1030.6 hPa | 0 mm | - | - | - |
| 1777699218 | 10.56° C | 71% | 1030.6 hPa | 0 mm | - | - | - |
| 1777698615 | 10° C | 73% | 1030.7 hPa | 0 mm | - | - | - |
| 1777698074 | 8.33° C | 80% | 1030.7 hPa | 0 mm | - | - | - |
| 1777697471 | 6.11° C | 88% | 1030.7 hPa | 0 mm | - | - | - |
| 1777696868 | 5.56° C | 90% | 1030.7 hPa | 0 mm | - | - | - |
| 1777696264 | 5.56° C | 90% | 1030.8 hPa | 0 mm | - | - | - |
| 1777695662 | 5° C | 89% | 1030.8 hPa | 0 mm | - | - | - |
| 1777695060 | 5° C | 89% | 1030.8 hPa | 0 mm | - | - | - |
| 1777694455 | 5° C | 89% | 1030.8 hPa | 0 mm | - | - | - |
| 1777693853 | 5° C | 89% | 1030.8 hPa | 0 mm | - | - | - |
| 1777693249 | 5.56° C | 88% | 1030.8 hPa | 0 mm | - | - | - |
| 1777692647 | 5.56° C | 88% | 1030.9 hPa | 0 mm | - | - | - |
| 1777692045 | 5.56° C | 88% | 1030.9 hPa | 0 mm | - | - | - |
* Rain latest hour (hover to see other rain measurements)
** Current wind speed in m/s (hover to see current wind gust speed)